createdAt,value
2018-12-23T00:00:38.322Z,7.50
2018-12-23T00:01:43.870Z,7.10
2018-12-23T00:02:49.388Z,7.70
2018-12-23T00:03:54.926Z,7.40
2018-12-23T00:05:00.454Z,6.60
2018-12-23T00:06:06.188Z,7.30
2018-12-23T00:07:11.527Z,6.90
2018-12-23T00:08:17.082Z,7.50
2018-12-23T00:09:22.603Z,5.80
2018-12-23T00:10:28.125Z,6.80
2018-12-23T00:11:33.663Z,6.50
2018-12-23T00:12:39.200Z,6.90
2018-12-23T00:13:44.726Z,6.60
2018-12-23T00:14:50.260Z,6.70
2018-12-23T00:15:55.793Z,6.40
2018-12-23T00:17:01.326Z,6.80
2018-12-23T00:18:06.870Z,7.40
2018-12-23T00:19:12.400Z,7.00
2018-12-23T00:20:17.928Z,6.90
2018-12-23T00:21:23.465Z,8.30
2018-12-23T00:22:29.000Z,6.30
2018-12-23T00:23:34.530Z,7.20
2018-12-23T00:24:40.060Z,6.90
2018-12-23T00:25:45.592Z,7.00
2018-12-23T00:26:51.127Z,6.20
2018-12-23T00:27:56.663Z,7.10
2018-12-23T00:29:02.192Z,7.50
2018-12-23T00:30:07.730Z,6.70
2018-12-23T00:31:13.260Z,7.10
2018-12-23T00:32:18.799Z,7.30
2018-12-23T00:33:25.559Z,6.70
2018-12-23T00:34:29.867Z,8.00
2018-12-23T00:35:35.395Z,6.70
2018-12-23T00:36:40.938Z,7.10
2018-12-23T00:37:46.499Z,6.80
2018-12-23T00:38:52.002Z,6.50
2018-12-23T00:39:57.537Z,6.90
2018-12-23T00:41:03.133Z,7.10
2018-12-23T00:42:08.597Z,6.60
2018-12-23T00:43:14.130Z,6.40
2018-12-23T00:44:19.666Z,7.00
2018-12-23T00:45:25.205Z,6.50
2018-12-23T00:46:30.740Z,6.10
2018-12-23T00:47:36.262Z,6.80
2018-12-23T00:48:41.804Z,6.70
2018-12-23T00:49:47.330Z,7.40
2018-12-23T00:50:52.864Z,6.10
2018-12-23T00:51:58.400Z,7.30
2018-12-23T00:53:03.938Z,7.10
2018-12-23T00:54:09.468Z,7.10
2018-12-23T00:55:14.996Z,7.10
2018-12-23T00:56:20.536Z,6.60
2018-12-23T00:57:26.067Z,6.60
2018-12-23T00:58:31.605Z,6.40
2018-12-23T00:59:37.147Z,7.10
2018-12-23T01:00:42.668Z,7.00
2018-12-23T01:01:48.206Z,7.20
2018-12-23T01:02:53.733Z,7.10
2018-12-23T01:03:59.279Z,7.40
2018-12-23T01:05:04.803Z,6.80
2018-12-23T01:06:10.348Z,7.10
2018-12-23T01:07:15.870Z,5.90
2018-12-23T01:08:21.405Z,7.30
2018-12-23T01:09:26.939Z,6.80
2018-12-23T01:10:32.473Z,7.10
2018-12-23T01:11:38.009Z,6.90
2018-12-23T01:12:43.545Z,7.50
2018-12-23T01:13:49.074Z,6.90
2018-12-23T01:14:54.609Z,7.40
2018-12-23T01:16:00.140Z,6.80
2018-12-23T01:17:05.681Z,7.30
2018-12-23T01:18:11.211Z,7.40
2018-12-23T01:19:16.743Z,7.60
2018-12-23T01:20:22.278Z,6.80
2018-12-23T01:21:27.808Z,6.90
2018-12-23T01:22:33.341Z,6.50
2018-12-23T01:23:38.876Z,6.80
2018-12-23T01:24:44.415Z,6.20
2018-12-23T01:25:49.946Z,6.70
2018-12-23T01:26:55.483Z,6.60
2018-12-23T01:28:01.013Z,6.90
2018-12-23T01:29:06.552Z,6.10
2018-12-23T01:30:12.085Z,7.40
2018-12-23T01:31:17.617Z,6.90
2018-12-23T01:32:23.146Z,7.70
2018-12-23T01:33:28.682Z,7.40
2018-12-23T01:34:37.124Z,7.80
2018-12-23T01:35:39.745Z,8.10
2018-12-23T01:36:45.281Z,7.30
2018-12-23T01:37:50.814Z,7.90
2018-12-23T01:38:56.347Z,7.70
2018-12-23T01:40:01.880Z,8.10
2018-12-23T01:41:07.414Z,7.60
2018-12-23T01:42:12.946Z,7.50
2018-12-23T01:43:18.482Z,8.40
2018-12-23T01:44:24.016Z,8.30
2018-12-23T01:45:29.554Z,8.60
2018-12-23T01:46:35.088Z,8.10
2018-12-23T01:47:40.616Z,7.90
2018-12-23T01:48:46.149Z,8.70
2018-12-23T01:49:51.691Z,8.80
2018-12-23T01:50:57.220Z,8.20
2018-12-23T01:52:02.754Z,8.20
2018-12-23T01:53:08.283Z,8.10
2018-12-23T01:54:13.824Z,8.80
2018-12-23T01:55:19.357Z,8.30
2018-12-23T01:56:24.885Z,8.40
2018-12-23T01:57:30.419Z,8.00
2018-12-23T01:58:35.956Z,8.70
2018-12-23T01:59:41.495Z,9.20
2018-12-23T02:00:47.024Z,8.90
2018-12-23T02:01:52.578Z,9.00
2018-12-23T02:02:58.091Z,8.20
2018-12-23T02:04:03.626Z,9.50
2018-12-23T02:05:09.155Z,9.30
2018-12-23T02:06:14.690Z,8.60
2018-12-23T02:07:20.227Z,8.70
2018-12-23T02:08:25.763Z,10.20
2018-12-23T02:09:31.293Z,10.50
2018-12-23T02:10:36.826Z,9.30
2018-12-23T02:11:42.362Z,9.80
2018-12-23T02:12:47.892Z,9.30
2018-12-23T02:13:53.427Z,9.00
2018-12-23T02:14:58.962Z,9.60
2018-12-23T02:16:04.500Z,9.70
2018-12-23T02:17:10.031Z,9.60
2018-12-23T02:18:15.566Z,10.10
2018-12-23T02:19:21.123Z,10.50
2018-12-23T02:20:26.638Z,9.90
2018-12-23T02:21:32.164Z,9.40
2018-12-23T02:22:37.704Z,9.50
2018-12-23T02:23:43.235Z,9.60
2018-12-23T02:24:48.768Z,9.50
2018-12-23T02:25:54.298Z,10.20
2018-12-23T02:26:59.838Z,9.80
2018-12-23T02:28:05.372Z,10.10
2018-12-23T02:29:10.902Z,10.40
2018-12-23T02:30:16.437Z,9.50
2018-12-23T02:31:21.966Z,9.30
2018-12-23T02:32:27.508Z,9.60
2018-12-23T02:33:33.036Z,10.60
2018-12-23T02:34:38.577Z,9.30
2018-12-23T02:35:44.106Z,10.50
2018-12-23T02:36:49.641Z,9.50
2018-12-23T02:37:55.186Z,9.80
2018-12-23T02:39:00.715Z,9.50
2018-12-23T02:40:06.244Z,9.80
2018-12-23T02:41:11.773Z,9.90
2018-12-23T02:42:17.308Z,10.20
2018-12-23T02:43:22.842Z,9.20
2018-12-23T02:44:28.378Z,9.90
2018-12-23T02:45:33.912Z,10.20
2018-12-23T02:46:39.444Z,10.00
2018-12-23T02:47:44.981Z,9.60
2018-12-23T02:48:50.523Z,9.20
2018-12-23T02:49:56.043Z,9.20
2018-12-23T02:51:01.581Z,9.50
2018-12-23T02:52:07.116Z,10.00
2018-12-23T02:53:12.647Z,9.50
2018-12-23T02:54:18.181Z,9.70
2018-12-23T02:55:23.722Z,9.40
2018-12-23T02:56:29.248Z,9.20
2018-12-23T02:57:34.784Z,9.70
2018-12-23T02:58:40.319Z,10.30
2018-12-23T02:59:45.855Z,9.30
2018-12-23T03:00:51.391Z,10.30
2018-12-23T03:01:56.916Z,10.20
2018-12-23T03:03:02.452Z,10.20
2018-12-23T03:04:07.986Z,10.70
2018-12-23T03:05:13.524Z,10.00
2018-12-23T03:06:19.055Z,10.30
2018-12-23T03:07:24.585Z,9.80
2018-12-23T03:08:30.121Z,9.70
2018-12-23T03:09:35.663Z,10.50
2018-12-23T03:10:41.204Z,10.20
2018-12-23T03:11:46.725Z,9.50
2018-12-23T03:12:52.259Z,9.90
2018-12-23T03:13:57.789Z,10.20
2018-12-23T03:15:03.344Z,10.40
2018-12-23T03:16:08.857Z,9.10
2018-12-23T03:17:14.394Z,10.20
2018-12-23T03:18:19.928Z,9.60
2018-12-23T03:19:25.600Z,9.20
2018-12-23T03:20:30.995Z,10.10
2018-12-23T03:21:36.539Z,9.50
2018-12-23T03:22:42.065Z,8.80
2018-12-23T03:23:47.603Z,9.00
2018-12-23T03:24:53.131Z,9.70
2018-12-23T03:25:58.670Z,9.10
2018-12-23T03:27:04.202Z,8.40
2018-12-23T03:28:09.732Z,8.30
2018-12-23T03:29:15.267Z,8.90
2018-12-23T03:30:20.805Z,8.30
2018-12-23T03:31:26.332Z,8.50
2018-12-23T03:32:31.869Z,9.10
2018-12-23T03:33:37.404Z,8.90
2018-12-23T03:34:42.933Z,7.90
2018-12-23T03:35:48.476Z,8.10
2018-12-23T03:36:54.002Z,8.20
2018-12-23T03:37:59.534Z,8.50
2018-12-23T03:39:05.070Z,8.40
2018-12-23T03:40:10.627Z,9.00
2018-12-23T03:41:16.145Z,8.90
2018-12-23T03:42:21.676Z,8.50
2018-12-23T03:43:27.209Z,8.50
2018-12-23T03:44:32.743Z,8.00
2018-12-23T03:45:38.280Z,8.10
2018-12-23T03:46:43.811Z,8.20
2018-12-23T03:47:49.352Z,8.10
2018-12-23T03:48:54.871Z,7.90
2018-12-23T03:50:00.413Z,7.50
2018-12-23T03:51:05.948Z,7.50
2018-12-23T03:52:11.479Z,8.00
2018-12-23T03:53:17.011Z,7.70
2018-12-23T03:54:22.543Z,8.20
2018-12-23T03:55:28.080Z,8.50
2018-12-23T03:56:33.611Z,8.10
2018-12-23T03:57:39.180Z,7.50
2018-12-23T03:58:44.683Z,7.90
2018-12-23T03:59:50.220Z,7.50
2018-12-23T04:00:55.749Z,8.70
2018-12-23T04:02:01.285Z,8.40
2018-12-23T04:03:06.817Z,8.20
2018-12-23T04:04:12.357Z,7.70
2018-12-23T04:05:17.888Z,8.00
2018-12-23T04:06:24.874Z,7.40
2018-12-23T04:07:28.946Z,7.10
2018-12-23T04:08:34.482Z,7.90
2018-12-23T04:09:40.025Z,7.90
2018-12-23T04:10:45.552Z,7.00
2018-12-23T04:11:51.095Z,7.70
2018-12-23T04:12:56.624Z,7.70
2018-12-23T04:14:02.159Z,8.10
2018-12-23T04:15:07.687Z,7.50
2018-12-23T04:16:13.226Z,7.10
2018-12-23T04:17:18.755Z,7.70
2018-12-23T04:18:24.292Z,7.30
2018-12-23T04:19:29.829Z,8.00
2018-12-23T04:20:35.359Z,7.60
2018-12-23T04:21:40.910Z,7.50
2018-12-23T04:22:46.426Z,7.10
2018-12-23T04:23:52.001Z,6.90
2018-12-23T04:24:57.503Z,7.40
2018-12-23T04:26:03.025Z,6.80
2018-12-23T04:27:08.570Z,6.90
2018-12-23T04:28:14.093Z,7.00
2018-12-23T04:29:19.638Z,7.40
2018-12-23T04:30:25.164Z,8.20
2018-12-23T04:31:30.695Z,7.20
2018-12-23T04:32:36.239Z,7.10
2018-12-23T04:33:41.769Z,7.20
2018-12-23T04:34:47.302Z,7.60
2018-12-23T04:35:52.835Z,6.80
2018-12-23T04:36:58.372Z,7.50
2018-12-23T04:38:03.899Z,6.70
2018-12-23T04:39:09.439Z,6.60
2018-12-23T04:40:14.970Z,6.40
2018-12-23T04:41:20.503Z,7.20
2018-12-23T04:42:26.034Z,6.20
2018-12-23T04:43:31.571Z,7.00
2018-12-23T04:44:37.108Z,7.00
2018-12-23T04:45:42.638Z,6.90
2018-12-23T04:46:48.172Z,6.50
2018-12-23T04:47:53.701Z,7.00
2018-12-23T04:48:59.241Z,6.90
2018-12-23T04:50:04.777Z,7.40
2018-12-23T04:51:10.306Z,6.00
2018-12-23T04:52:15.837Z,6.70
2018-12-23T04:53:21.376Z,6.30
2018-12-23T04:54:26.905Z,6.20
2018-12-23T04:55:32.440Z,6.40
2018-12-23T04:56:37.972Z,5.90
2018-12-23T04:57:43.506Z,5.40
2018-12-23T04:58:49.042Z,6.00
2018-12-23T04:59:54.579Z,6.20
2018-12-23T05:01:00.112Z,4.90
2018-12-23T05:02:05.648Z,6.10
2018-12-23T05:03:11.178Z,5.40
2018-12-23T05:04:16.708Z,5.80
2018-12-23T05:05:22.248Z,6.20
2018-12-23T05:06:27.780Z,5.70
2018-12-23T05:07:33.314Z,6.00
2018-12-23T05:08:38.845Z,5.40
2018-12-23T05:09:44.384Z,5.70
2018-12-23T05:10:49.914Z,5.40
2018-12-23T05:11:55.449Z,6.40
2018-12-23T05:13:00.989Z,5.40
2018-12-23T05:14:06.517Z,5.60
2018-12-23T05:15:12.050Z,5.60
2018-12-23T05:16:17.583Z,5.40
2018-12-23T05:17:23.116Z,5.30
2018-12-23T05:18:28.651Z,5.80
2018-12-23T05:19:34.187Z,5.30
2018-12-23T05:20:39.719Z,5.50
2018-12-23T05:21:45.258Z,5.20
2018-12-23T05:22:50.791Z,6.20
2018-12-23T05:23:56.321Z,5.50
2018-12-23T05:25:01.854Z,6.10
2018-12-23T05:26:07.387Z,7.30
2018-12-23T05:27:12.923Z,6.70
2018-12-23T05:28:20.757Z,6.20
2018-12-23T05:29:23.988Z,5.90
2018-12-23T05:30:29.531Z,6.00
2018-12-23T05:31:35.058Z,6.60
2018-12-23T05:32:40.590Z,6.20
2018-12-23T05:33:46.124Z,6.70
2018-12-23T05:34:51.661Z,6.40
2018-12-23T05:35:57.188Z,6.50
2018-12-23T05:37:02.734Z,5.80
2018-12-23T05:38:08.260Z,7.10
2018-12-23T05:39:13.794Z,6.60
2018-12-23T05:40:19.327Z,6.30
2018-12-23T05:41:24.867Z,6.30
2018-12-23T05:42:30.397Z,6.80
2018-12-23T05:43:35.935Z,6.70
2018-12-23T05:44:41.468Z,6.30
2018-12-23T05:45:47.000Z,7.60
2018-12-23T05:46:52.536Z,6.40
2018-12-23T05:47:58.065Z,6.50
2018-12-23T05:49:03.604Z,6.70
2018-12-23T05:50:09.135Z,6.40
2018-12-23T05:51:14.667Z,7.10
2018-12-23T05:52:20.202Z,6.10
2018-12-23T05:53:25.740Z,6.60
2018-12-23T05:54:31.274Z,6.70
2018-12-23T05:55:36.805Z,6.90
2018-12-23T05:56:42.342Z,6.40
2018-12-23T05:57:47.874Z,7.60
2018-12-23T05:58:53.411Z,7.50
2018-12-23T05:59:58.947Z,7.30
2018-12-23T06:01:04.477Z,6.60
2018-12-23T06:02:10.011Z,7.40
2018-12-23T06:03:15.543Z,7.80
2018-12-23T06:04:21.077Z,7.30
2018-12-23T06:05:26.615Z,7.00
2018-12-23T06:06:32.143Z,7.10
2018-12-23T06:07:37.680Z,7.40
2018-12-23T06:08:43.222Z,7.10
2018-12-23T06:09:48.744Z,7.20
2018-12-23T06:10:54.279Z,6.80
2018-12-23T06:11:59.815Z,7.20
2018-12-23T06:13:05.348Z,7.60
2018-12-23T06:14:10.884Z,7.00
2018-12-23T06:15:16.419Z,7.10
2018-12-23T06:16:21.954Z,6.20
2018-12-23T06:17:27.489Z,6.60
2018-12-23T06:18:33.027Z,6.40
2018-12-23T06:19:38.553Z,7.60
2018-12-23T06:20:44.091Z,6.50
2018-12-23T06:21:49.620Z,6.90
2018-12-23T06:22:55.156Z,6.90
2018-12-23T06:24:00.688Z,6.00
2018-12-23T06:25:06.227Z,5.90
2018-12-23T06:26:11.756Z,5.50
2018-12-23T06:27:17.294Z,5.40
2018-12-23T06:28:22.824Z,5.20
2018-12-23T06:29:28.358Z,5.10
2018-12-23T06:30:33.896Z,5.20
2018-12-23T06:31:39.430Z,4.90
2018-12-23T06:32:44.965Z,4.70
2018-12-23T06:33:50.496Z,5.10
2018-12-23T06:34:56.034Z,4.90
2018-12-23T06:36:01.565Z,4.90
2018-12-23T06:37:10.322Z,4.70
2018-12-23T06:38:12.630Z,4.90
2018-12-23T06:39:18.166Z,4.40
2018-12-23T06:40:23.709Z,4.60
2018-12-23T06:41:29.233Z,4.40
2018-12-23T06:42:34.772Z,4.50
2018-12-23T06:43:40.308Z,4.00
2018-12-23T06:44:45.839Z,4.00
2018-12-23T06:45:51.376Z,4.60
2018-12-23T06:46:56.911Z,3.90
2018-12-23T06:48:02.437Z,4.00
2018-12-23T06:49:07.971Z,3.60
2018-12-23T06:50:13.505Z,3.40
2018-12-23T06:51:19.040Z,3.80
2018-12-23T06:52:24.579Z,3.20
2018-12-23T06:53:30.110Z,2.90
2018-12-23T06:54:35.639Z,3.10
2018-12-23T06:55:41.181Z,3.00
2018-12-23T06:56:46.708Z,3.10
2018-12-23T06:57:52.269Z,3.50
2018-12-23T06:58:57.783Z,3.40
2018-12-23T07:00:03.314Z,2.70
2018-12-23T07:01:08.840Z,3.20
2018-12-23T07:02:14.377Z,2.50
2018-12-23T07:03:19.909Z,2.70
2018-12-23T07:04:25.442Z,4.00
2018-12-23T07:05:30.982Z,4.00
2018-12-23T07:06:36.511Z,4.30
2018-12-23T07:07:42.045Z,4.10
2018-12-23T07:08:47.584Z,4.20
2018-12-23T07:09:53.118Z,3.90
2018-12-23T07:10:58.656Z,2.80
2018-12-23T07:12:04.179Z,3.20
2018-12-23T07:13:09.718Z,3.60
2018-12-23T07:14:15.247Z,4.50
2018-12-23T07:15:20.783Z,5.30
2018-12-23T07:16:26.315Z,4.30
2018-12-23T07:17:31.852Z,3.10
2018-12-23T07:18:37.382Z,3.00
2018-12-23T07:19:42.915Z,3.20
2018-12-23T07:20:48.448Z,2.30
2018-12-23T07:21:54.061Z,2.30
2018-12-23T07:22:59.538Z,2.40
2018-12-23T07:24:05.053Z,2.90
2018-12-23T07:25:10.588Z,2.40
2018-12-23T07:26:16.122Z,2.90
2018-12-23T07:27:21.972Z,3.10
2018-12-23T07:28:27.188Z,2.70
2018-12-23T07:29:32.726Z,3.00
2018-12-23T07:30:38.252Z,3.90
2018-12-23T07:31:43.787Z,3.40
2018-12-23T07:32:49.318Z,4.50
2018-12-23T07:33:54.857Z,3.40
2018-12-23T07:35:00.398Z,3.70
2018-12-23T07:36:05.920Z,4.20
2018-12-23T07:37:11.459Z,4.00
2018-12-23T07:38:16.995Z,4.00
2018-12-23T07:39:22.521Z,4.60
2018-12-23T07:40:28.061Z,4.60
2018-12-23T07:41:33.587Z,4.20
2018-12-23T07:42:39.121Z,3.50
2018-12-23T07:43:44.653Z,4.00
2018-12-23T07:44:50.196Z,5.20
2018-12-23T07:45:55.835Z,5.20
2018-12-23T07:47:01.304Z,5.30
2018-12-23T07:48:06.791Z,5.30
2018-12-23T07:49:12.325Z,6.30
2018-12-23T07:50:17.869Z,5.80
2018-12-23T07:51:23.393Z,4.60
2018-12-23T07:52:28.930Z,4.80
2018-12-23T07:53:34.459Z,5.00
2018-12-23T07:54:39.998Z,4.40
2018-12-23T07:55:45.528Z,5.40
2018-12-23T07:56:51.060Z,5.20
2018-12-23T07:57:56.596Z,5.90
2018-12-23T07:59:02.130Z,6.00
2018-12-23T08:00:07.668Z,6.00
2018-12-23T08:01:13.296Z,5.30
2018-12-23T08:02:18.730Z,5.50
2018-12-23T08:03:24.265Z,5.10
2018-12-23T08:04:29.807Z,5.20
2018-12-23T08:05:35.332Z,5.50
2018-12-23T08:06:40.865Z,5.10
2018-12-23T08:07:46.399Z,6.70
2018-12-23T08:08:51.932Z,5.00
2018-12-23T08:09:57.471Z,6.00
2018-12-23T08:11:03.000Z,5.90
2018-12-23T08:12:08.532Z,6.30
2018-12-23T08:13:14.067Z,5.90
2018-12-23T08:14:19.607Z,5.20
2018-12-23T08:15:25.135Z,4.40
2018-12-23T08:16:30.668Z,4.40
2018-12-23T08:17:36.200Z,5.10
2018-12-23T08:18:41.741Z,5.30
2018-12-23T08:19:47.273Z,5.00
2018-12-23T08:20:52.804Z,4.90
2018-12-23T08:21:58.340Z,4.70
2018-12-23T08:23:03.875Z,4.50
2018-12-23T08:24:09.405Z,5.20
2018-12-23T08:25:14.939Z,4.60
2018-12-23T08:26:20.474Z,5.30
2018-12-23T08:27:26.012Z,5.00
2018-12-23T08:28:31.541Z,4.90
2018-12-23T08:29:37.077Z,5.10
2018-12-23T08:30:42.620Z,4.20
2018-12-23T08:31:48.785Z,4.10
2018-12-23T08:32:53.677Z,4.30
2018-12-23T08:33:59.214Z,4.40
2018-12-23T08:35:04.746Z,5.10
2018-12-23T08:36:10.282Z,4.80
2018-12-23T08:37:15.822Z,4.80
2018-12-23T08:38:21.354Z,4.40
2018-12-23T08:39:26.885Z,5.00
2018-12-23T08:40:32.424Z,4.70
2018-12-23T08:41:37.948Z,4.60
2018-12-23T08:42:43.487Z,5.20
2018-12-23T08:43:49.015Z,5.00
2018-12-23T08:44:54.552Z,5.30
2018-12-23T08:46:00.085Z,4.80
2018-12-23T08:47:05.623Z,5.00
2018-12-23T08:48:11.158Z,5.10
2018-12-23T08:49:16.688Z,4.90
2018-12-23T08:50:22.220Z,4.30
2018-12-23T08:51:27.754Z,5.80
2018-12-23T08:52:33.288Z,5.20
2018-12-23T08:53:38.823Z,5.30
2018-12-23T08:54:44.362Z,5.50
2018-12-23T08:55:49.894Z,5.00
2018-12-23T08:56:55.424Z,4.90
2018-12-23T08:58:00.960Z,4.90
2018-12-23T08:59:06.502Z,5.20
2018-12-23T09:00:12.037Z,5.20
2018-12-23T09:01:17.568Z,4.20
2018-12-23T09:02:23.096Z,4.90
2018-12-23T09:03:28.635Z,4.10
2018-12-23T09:04:34.158Z,5.00
2018-12-23T09:05:39.702Z,4.90
2018-12-23T09:06:45.237Z,4.90
2018-12-23T09:07:53.080Z,4.90
2018-12-23T09:08:56.307Z,4.50
2018-12-23T09:10:01.851Z,4.60
2018-12-23T09:11:07.399Z,4.60
2018-12-23T09:12:12.915Z,4.40
2018-12-23T09:13:18.440Z,4.70
2018-12-23T09:14:23.977Z,4.70
2018-12-23T09:15:29.507Z,4.40
2018-12-23T09:16:35.042Z,5.30
2018-12-23T09:17:40.576Z,4.50
2018-12-23T09:18:46.117Z,5.20
2018-12-23T09:19:51.645Z,5.50
2018-12-23T09:20:57.183Z,4.90
2018-12-23T09:22:02.711Z,5.30
2018-12-23T09:23:08.250Z,5.70
2018-12-23T09:24:13.800Z,5.40
2018-12-23T09:25:19.314Z,4.90
2018-12-23T09:26:24.846Z,5.20
2018-12-23T09:27:30.389Z,4.60
2018-12-23T09:28:35.918Z,4.80
2018-12-23T09:29:41.456Z,5.00
2018-12-23T09:30:46.993Z,5.10
2018-12-23T09:31:52.527Z,5.10
2018-12-23T09:32:58.073Z,5.20
2018-12-23T09:34:03.587Z,5.20
2018-12-23T09:35:09.123Z,4.40
2018-12-23T09:36:14.657Z,5.50
2018-12-23T09:37:20.193Z,4.50
2018-12-23T09:38:25.726Z,5.80
2018-12-23T09:39:31.262Z,5.00
2018-12-23T09:40:36.802Z,5.20
2018-12-23T09:41:42.342Z,4.40
2018-12-23T09:42:47.862Z,4.60
2018-12-23T09:43:53.401Z,5.10
2018-12-23T09:44:58.931Z,5.00
2018-12-23T09:46:04.469Z,5.10
2018-12-23T09:47:09.999Z,5.10
2018-12-23T09:48:15.537Z,5.30
2018-12-23T09:49:21.071Z,6.10
2018-12-23T09:50:26.603Z,5.30
2018-12-23T09:51:32.136Z,5.20
2018-12-23T09:52:37.668Z,5.00
2018-12-23T09:53:43.217Z,4.90
2018-12-23T09:54:48.743Z,5.00
2018-12-23T09:55:54.274Z,5.30
2018-12-23T09:56:59.808Z,5.40
2018-12-23T09:58:05.343Z,5.30
2018-12-23T09:59:10.874Z,5.10
2018-12-23T10:00:16.415Z,5.00
2018-12-23T10:01:21.948Z,4.80
2018-12-23T10:02:27.478Z,5.70
2018-12-23T10:03:33.012Z,4.60
2018-12-23T10:04:38.546Z,5.50
2018-12-23T10:05:44.085Z,5.00
2018-12-23T10:06:49.616Z,5.70
2018-12-23T10:07:55.153Z,5.50
2018-12-23T10:09:00.739Z,5.10
2018-12-23T10:10:06.219Z,5.70
2018-12-23T10:11:11.758Z,6.00
2018-12-23T10:12:17.286Z,5.00
2018-12-23T10:13:22.819Z,6.00
2018-12-23T10:14:28.404Z,5.00
2018-12-23T10:15:33.888Z,5.40
2018-12-23T10:16:39.428Z,5.60
2018-12-23T10:17:44.966Z,5.40
2018-12-23T10:18:50.492Z,5.40
2018-12-23T10:21:27.631Z,5.50
2018-12-23T10:22:33.139Z,5.80
2018-12-23T10:23:38.664Z,5.20
2018-12-23T10:24:44.205Z,5.70
2018-12-23T10:25:49.742Z,4.60
2018-12-23T10:26:55.268Z,5.00
2018-12-23T10:28:00.805Z,5.50
2018-12-23T10:29:06.334Z,4.90
2018-12-23T10:30:11.877Z,5.40
2018-12-23T10:31:17.442Z,5.30
2018-12-23T10:32:22.958Z,5.50
2018-12-23T10:33:28.475Z,5.20
2018-12-23T10:34:34.101Z,5.70
2018-12-23T10:35:39.551Z,4.90
2018-12-23T10:36:45.079Z,4.90
2018-12-23T10:37:50.612Z,4.70
2018-12-23T10:38:56.148Z,5.40
2018-12-23T10:40:01.681Z,5.10
2018-12-23T10:41:07.214Z,5.60
2018-12-23T10:42:12.750Z,4.50
2018-12-23T10:43:18.291Z,4.70
2018-12-23T10:44:23.817Z,4.70
2018-12-23T10:45:29.355Z,4.20
2018-12-23T10:46:34.884Z,4.80
2018-12-23T10:47:40.425Z,4.80
2018-12-23T10:48:45.947Z,5.20
2018-12-23T10:49:51.486Z,5.40
2018-12-23T10:50:57.027Z,5.00
2018-12-23T10:52:02.555Z,4.50
2018-12-23T10:53:08.096Z,3.70
2018-12-23T10:54:13.629Z,4.10
2018-12-23T10:55:19.159Z,4.50
2018-12-23T10:56:24.696Z,4.30
2018-12-23T10:57:30.236Z,3.80
2018-12-23T10:58:35.767Z,4.20
2018-12-23T10:59:41.298Z,3.70
2018-12-23T11:00:46.840Z,3.90
2018-12-23T11:01:52.372Z,3.90
2018-12-23T11:02:57.904Z,3.90
2018-12-23T11:04:03.437Z,3.90
2018-12-23T11:05:08.968Z,4.10
2018-12-23T11:06:14.502Z,3.70
2018-12-23T11:07:20.039Z,3.90
2018-12-23T11:08:27.026Z,3.80
2018-12-23T11:09:31.125Z,4.10
2018-12-23T11:10:36.645Z,4.50
2018-12-23T11:11:42.249Z,4.40
2018-12-23T11:12:47.710Z,4.10
2018-12-23T11:13:53.248Z,4.30
2018-12-23T11:14:58.779Z,4.00
2018-12-23T11:16:04.321Z,5.40
2018-12-23T11:17:09.845Z,4.40
2018-12-23T11:18:15.388Z,4.30
2018-12-23T11:19:20.919Z,3.80
2018-12-23T11:20:26.459Z,4.50
2018-12-23T11:21:31.987Z,4.60
2018-12-23T11:22:37.517Z,4.00
2018-12-23T11:23:43.061Z,4.20
2018-12-23T11:24:48.592Z,4.20
2018-12-23T11:25:54.122Z,3.90
2018-12-23T11:26:59.662Z,4.40
2018-12-23T11:28:05.190Z,4.00
2018-12-23T11:29:10.730Z,4.10
2018-12-23T11:30:16.263Z,4.70
2018-12-23T11:31:21.800Z,3.90
2018-12-23T11:32:27.329Z,4.60
2018-12-23T11:33:32.868Z,4.60
2018-12-23T11:34:38.405Z,4.60
2018-12-23T11:35:43.936Z,4.60
2018-12-23T11:36:52.311Z,5.00
2018-12-23T11:37:55.006Z,4.90
2018-12-23T11:39:00.634Z,4.70
2018-12-23T11:40:06.078Z,5.70
2018-12-23T11:41:11.608Z,4.90
2018-12-23T11:42:17.137Z,5.10
2018-12-23T11:43:22.679Z,4.70
2018-12-23T11:44:28.207Z,5.00
2018-12-23T11:45:33.738Z,5.10
2018-12-23T11:46:39.279Z,4.80
2018-12-23T11:47:44.813Z,4.60
2018-12-23T11:48:50.351Z,4.60
2018-12-23T11:49:55.886Z,4.80
2018-12-23T11:51:01.414Z,4.90
2018-12-23T11:52:06.948Z,5.40
2018-12-23T11:53:12.476Z,5.70
2018-12-23T11:54:18.017Z,5.10
2018-12-23T11:55:23.551Z,5.10
2018-12-23T11:56:29.085Z,6.30
2018-12-23T11:57:34.621Z,5.40
2018-12-23T11:58:40.153Z,4.80
2018-12-23T11:59:45.697Z,5.00
2018-12-23T12:05:25.967Z,5.50
2018-12-23T12:06:31.488Z,5.40
2018-12-23T12:07:37.022Z,5.30
2018-12-23T12:08:43.838Z,5.10
2018-12-23T12:09:48.087Z,5.60
2018-12-23T12:10:53.628Z,5.90
2018-12-23T12:11:59.150Z,5.20
2018-12-23T12:13:04.790Z,5.40
2018-12-23T12:14:10.226Z,6.10
2018-12-23T12:15:15.755Z,5.80
2018-12-23T12:16:21.290Z,5.70
2018-12-23T12:17:26.827Z,5.70
2018-12-23T12:18:32.357Z,5.10
2018-12-23T12:19:37.897Z,5.70
2018-12-23T12:20:43.429Z,5.10
2018-12-23T12:21:48.960Z,4.60
2018-12-23T12:22:54.495Z,4.80
2018-12-23T12:24:00.035Z,5.60
2018-12-23T12:25:05.565Z,5.40
2018-12-23T12:26:11.097Z,5.30
2018-12-23T12:27:16.633Z,6.00
2018-12-23T12:28:22.166Z,4.60
2018-12-23T12:29:27.707Z,4.70
2018-12-23T12:30:33.240Z,4.70
2018-12-23T12:31:38.769Z,5.30
2018-12-23T12:32:44.303Z,5.10
2018-12-23T12:33:49.837Z,5.00
2018-12-23T12:34:55.377Z,5.20
2018-12-23T12:36:00.914Z,4.60
2018-12-23T12:37:06.448Z,5.00
2018-12-23T12:38:11.987Z,5.30
2018-12-23T12:39:17.509Z,4.80
2018-12-23T12:40:23.041Z,5.20
2018-12-23T12:41:28.582Z,4.60
2018-12-23T12:42:34.117Z,5.40
2018-12-23T12:43:39.647Z,4.90
2018-12-23T12:44:45.178Z,5.50
2018-12-23T12:45:50.716Z,5.10
2018-12-23T12:46:56.255Z,5.00
2018-12-23T12:48:01.784Z,4.80
2018-12-23T12:49:07.318Z,5.30
2018-12-23T12:50:12.852Z,5.00
2018-12-23T12:51:18.381Z,4.50
2018-12-23T12:52:23.922Z,5.00
2018-12-23T12:53:29.452Z,5.00
2018-12-23T12:54:34.990Z,4.40
2018-12-23T12:55:40.520Z,5.00
2018-12-23T12:56:46.060Z,4.60
2018-12-23T12:57:51.592Z,4.00
2018-12-23T12:58:57.133Z,4.60
2018-12-23T13:00:02.667Z,4.20
2018-12-23T13:01:08.193Z,4.60
2018-12-23T13:02:13.728Z,4.00
2018-12-23T13:03:19.261Z,4.80
2018-12-23T13:04:24.799Z,4.60
2018-12-23T13:05:30.330Z,4.30
2018-12-23T13:06:35.864Z,4.30
2018-12-23T13:07:41.398Z,4.50
2018-12-23T13:08:46.938Z,4.20
2018-12-23T13:09:52.470Z,4.30
2018-12-23T13:10:58.005Z,3.90
2018-12-23T13:12:03.536Z,4.60
2018-12-23T13:13:09.070Z,4.30
2018-12-23T13:14:14.603Z,4.00
2018-12-23T13:15:20.140Z,5.00
2018-12-23T13:16:25.667Z,4.10
2018-12-23T13:17:31.205Z,4.00
2018-12-23T13:18:36.739Z,3.70
2018-12-23T13:19:42.277Z,3.70
2018-12-23T13:20:47.860Z,3.90
2018-12-23T13:21:53.347Z,3.70
2018-12-23T13:22:58.875Z,3.60
2018-12-23T13:24:04.408Z,3.90
2018-12-23T13:25:10.053Z,4.10
2018-12-23T13:26:15.478Z,4.40
2018-12-23T13:27:21.012Z,3.80
2018-12-23T13:28:26.638Z,4.20
2018-12-23T13:29:32.087Z,4.00
2018-12-23T13:30:37.615Z,4.10
2018-12-23T13:31:43.155Z,4.40
2018-12-23T13:32:48.682Z,4.50
2018-12-23T13:33:54.227Z,4.10
2018-12-23T13:34:59.751Z,4.50
2018-12-23T13:36:05.291Z,4.70
2018-12-23T13:37:10.820Z,4.60
2018-12-23T13:38:16.359Z,4.10
2018-12-23T13:39:21.889Z,4.00
2018-12-23T13:40:27.431Z,4.50
2018-12-23T13:41:32.959Z,4.30
2018-12-23T13:42:38.493Z,4.90
2018-12-23T13:43:44.027Z,3.90
2018-12-23T13:44:49.564Z,4.80
2018-12-23T13:45:55.098Z,4.30
2018-12-23T13:47:00.632Z,4.20
2018-12-23T13:48:06.163Z,4.50
2018-12-23T13:49:11.699Z,4.10
2018-12-23T13:50:17.246Z,4.20
2018-12-23T13:51:22.764Z,4.50
2018-12-23T13:52:28.297Z,4.40
2018-12-23T13:53:33.847Z,4.40
2018-12-23T13:54:39.418Z,4.80
2018-12-23T13:55:44.901Z,5.50
2018-12-23T13:56:50.438Z,5.00
2018-12-23T13:57:55.969Z,5.60
2018-12-23T13:59:01.501Z,5.80
2018-12-23T14:00:07.071Z,5.80
2018-12-23T14:01:12.580Z,6.60
2018-12-23T14:03:49.712Z,5.20
2018-12-23T14:04:55.216Z,5.20
2018-12-23T14:06:53.619Z,5.70
2018-12-23T14:07:59.148Z,4.90
2018-12-23T14:09:57.583Z,5.50
2018-12-23T14:11:03.095Z,5.40
2018-12-23T14:13:01.494Z,3.90
2018-12-23T14:14:07.022Z,3.90
2018-12-23T14:16:05.462Z,4.70
2018-12-23T14:17:10.968Z,4.70
2018-12-23T14:19:09.381Z,4.40
2018-12-23T14:20:14.902Z,5.10
2018-12-23T14:21:20.434Z,4.50
2018-12-23T14:22:25.967Z,4.70
2018-12-23T14:23:31.509Z,4.20
2018-12-23T14:24:37.038Z,4.20
2018-12-23T14:25:42.634Z,4.40
2018-12-23T14:26:48.108Z,5.30
2018-12-23T14:27:53.665Z,4.10
2018-12-23T14:28:59.169Z,4.00
2018-12-23T14:30:04.717Z,4.50
2018-12-23T14:31:10.237Z,4.50
2018-12-23T14:32:15.775Z,4.10
2018-12-23T14:33:21.319Z,4.90
2018-12-23T14:34:26.850Z,4.90
2018-12-23T14:35:32.477Z,4.80
2018-12-23T14:36:37.911Z,4.90
2018-12-23T14:37:43.444Z,4.20
2018-12-23T14:38:48.979Z,5.00
2018-12-23T14:39:54.507Z,3.90
2018-12-23T14:41:00.045Z,4.90
2018-12-23T14:42:05.587Z,5.30
2018-12-23T14:43:11.118Z,5.20